Terminal Aerodrome Forecast
Issued by NWS

Home | Current Version | Previous Version | Text Only | Print | Product List | Glossary On
Versions: 1 2 3 4 5 6 7 8 9 10 11 12 13 14 15 16 17 18 19 20 21 22 23 24 25 26 27 28 29 30 31 32
000
FTUS46 KMTR 011700
TAFSFO
TAF
KSFO 011722Z 0118/0224 12006KT P6SM FEW035
     FM012200 31008KT P6SM FEW035
     FM020100 28012KT P6SM FEW035
     FM020600 27006KT P6SM FEW025
     FM021000 24004KT 6SM BR FEW010
     FM022000 28007KT P6SM SCT050 BKN100=

USA.gov is the U.S. government's official web portal to all federal, state and local government web resources and services.